sensor_id;sensor_type;location;lat;lon;timestamp;P1;durP1;ratioP1;P2;durP2;ratioP2
34405;SDS011;20658;45.630;8.886;2022-09-13T00:02:20;7.30;;;3.47;;
34405;SDS011;20658;45.630;8.886;2022-09-13T00:04:53;10.13;;;3.65;;
34405;SDS011;20658;45.630;8.886;2022-09-13T00:07:26;5.45;;;3.08;;
34405;SDS011;20658;45.630;8.886;2022-09-13T00:10:00;8.88;;;3.53;;
34405;SDS011;20658;45.630;8.886;2022-09-13T00:12:33;6.25;;;3.40;;
34405;SDS011;20658;45.630;8.886;2022-09-13T00:15:06;8.80;;;3.28;;
34405;SDS011;20658;45.630;8.886;2022-09-13T00:17:42;8.25;;;2.72;;
34405;SDS011;20658;45.630;8.886;2022-09-13T00:20:15;5.93;;;3.08;;
34405;SDS011;20658;45.630;8.886;2022-09-13T00:22:49;10.45;;;3.72;;
34405;SDS011;20658;45.630;8.886;2022-09-13T00:25:17;9.65;;;3.75;;
34405;SDS011;20658;45.630;8.886;2022-09-13T00:27:51;10.25;;;4.05;;
34405;SDS011;20658;45.630;8.886;2022-09-13T00:30:26;8.30;;;3.55;;
34405;SDS011;20658;45.630;8.886;2022-09-13T00:33:00;8.57;;;4.22;;
34405;SDS011;20658;45.630;8.886;2022-09-13T00:35:34;10.02;;;5.25;;
34405;SDS011;20658;45.630;8.886;2022-09-13T00:38:07;9.98;;;4.57;;
34405;SDS011;20658;45.630;8.886;2022-09-13T00:40:41;14.45;;;3.97;;
34405;SDS011;20658;45.630;8.886;2022-09-13T00:43:15;13.07;;;5.65;;
34405;SDS011;20658;45.630;8.886;2022-09-13T00:45:51;8.13;;;3.80;;
34405;SDS011;20658;45.630;8.886;2022-09-13T00:48:26;11.35;;;4.50;;
34405;SDS011;20658;45.630;8.886;2022-09-13T00:51:00;10.23;;;5.10;;
34405;SDS011;20658;45.630;8.886;2022-09-13T00:53:29;8.23;;;4.60;;
34405;SDS011;20658;45.630;8.886;2022-09-13T00:56:06;12.02;;;4.32;;
34405;SDS011;20658;45.630;8.886;2022-09-13T00:58:45;8.75;;;3.28;;
34405;SDS011;20658;45.630;8.886;2022-09-13T01:01:25;8.38;;;3.50;;
34405;SDS011;20658;45.630;8.886;2022-09-13T01:04:06;9.55;;;2.90;;
34405;SDS011;20658;45.630;8.886;2022-09-13T01:06:40;6.60;;;3.50;;
34405;SDS011;20658;45.630;8.886;2022-09-13T01:09:14;6.32;;;3.40;;
34405;SDS011;20658;45.630;8.886;2022-09-13T01:11:48;7.43;;;3.20;;
34405;SDS011;20658;45.630;8.886;2022-09-13T01:14:34;6.60;;;3.20;;
34405;SDS011;20658;45.630;8.886;2022-09-13T01:17:09;7.00;;;3.85;;
34405;SDS011;20658;45.630;8.886;2022-09-13T01:19:44;7.78;;;3.30;;
34405;SDS011;20658;45.630;8.886;2022-09-13T01:22:22;8.73;;;3.97;;
34405;SDS011;20658;45.630;8.886;2022-09-13T01:25:56;12.82;;;3.20;;
34405;SDS011;20658;45.630;8.886;2022-09-13T01:29:20;7.18;;;3.25;;
34405;SDS011;20658;45.630;8.886;2022-09-13T01:32:45;7.15;;;3.20;;
34405;SDS011;20658;45.630;8.886;2022-09-13T01:35:34;11.00;;;3.95;;
34405;SDS011;20658;45.630;8.886;2022-09-13T01:38:18;11.07;;;4.30;;
34405;SDS011;20658;45.630;8.886;2022-09-13T01:41:05;6.95;;;3.13;;
34405;SDS011;20658;45.630;8.886;2022-09-13T01:43:53;10.82;;;3.63;;
34405;SDS011;20658;45.630;8.886;2022-09-13T01:46:36;16.00;;;3.45;;
34405;SDS011;20658;45.630;8.886;2022-09-13T01:49:13;7.78;;;4.05;;
34405;SDS011;20658;45.630;8.886;2022-09-13T01:51:53;6.60;;;3.72;;
34405;SDS011;20658;45.630;8.886;2022-09-13T01:54:33;16.38;;;4.32;;
34405;SDS011;20658;45.630;8.886;2022-09-13T01:57:15;9.48;;;4.40;;
34405;SDS011;20658;45.630;8.886;2022-09-13T01:59:54;10.30;;;4.30;;
34405;SDS011;20658;45.630;8.886;2022-09-13T02:02:38;7.15;;;3.85;;
34405;SDS011;20658;45.630;8.886;2022-09-13T02:05:12;6.20;;;4.00;;
34405;SDS011;20658;45.630;8.886;2022-09-13T02:10:32;7.97;;;3.35;;
34405;SDS011;20658;45.630;8.886;2022-09-13T02:13:10;15.32;;;3.80;;
34405;SDS011;20658;45.630;8.886;2022-09-13T02:15:50;15.05;;;3.80;;
34405;SDS011;20658;45.630;8.886;2022-09-13T02:18:25;9.93;;;4.07;;
34405;SDS011;20658;45.630;8.886;2022-09-13T02:21:05;8.07;;;3.80;;
34405;SDS011;20658;45.630;8.886;2022-09-13T02:23:40;8.90;;;4.18;;
34405;SDS011;20658;45.630;8.886;2022-09-13T02:26:19;14.57;;;5.00;;
34405;SDS011;20658;45.630;8.886;2022-09-13T02:28:54;9.68;;;4.07;;
34405;SDS011;20658;45.630;8.886;2022-09-13T02:31:33;7.18;;;4.55;;
34405;SDS011;20658;45.630;8.886;2022-09-13T02:34:13;8.23;;;4.53;;
34405;SDS011;20658;45.630;8.886;2022-09-13T02:36:53;11.13;;;4.10;;
34405;SDS011;20658;45.630;8.886;2022-09-13T02:39:28;9.13;;;4.00;;
34405;SDS011;20658;45.630;8.886;2022-09-13T02:42:05;6.93;;;4.00;;
34405;SDS011;20658;45.630;8.886;2022-09-13T02:44:45;9.82;;;4.47;;
34405;SDS011;20658;45.630;8.886;2022-09-13T02:47:27;8.10;;;3.63;;
34405;SDS011;20658;45.630;8.886;2022-09-13T02:50:18;15.02;;;3.60;;
34405;SDS011;20658;45.630;8.886;2022-09-13T02:53:05;7.70;;;3.70;;
34405;SDS011;20658;45.630;8.886;2022-09-13T02:55:49;15.32;;;4.43;;
34405;SDS011;20658;45.630;8.886;2022-09-13T02:58:30;8.18;;;3.83;;
34405;SDS011;20658;45.630;8.886;2022-09-13T03:01:10;6.95;;;3.05;;
34405;SDS011;20658;45.630;8.886;2022-09-13T03:03:44;14.13;;;3.40;;
34405;SDS011;20658;45.630;8.886;2022-09-13T03:06:22;8.57;;;3.10;;
34405;SDS011;20658;45.630;8.886;2022-09-13T03:08:56;6.13;;;2.60;;
34405;SDS011;20658;45.630;8.886;2022-09-13T03:11:38;5.68;;;2.70;;
34405;SDS011;20658;45.630;8.886;2022-09-13T03:14:31;5.40;;;2.78;;
34405;SDS011;20658;45.630;8.886;2022-09-13T03:17:14;5.05;;;2.63;;
34405;SDS011;20658;45.630;8.886;2022-09-13T03:20:05;12.68;;;3.17;;
34405;SDS011;20658;45.630;8.886;2022-09-13T03:22:45;8.48;;;3.40;;
34405;SDS011;20658;45.630;8.886;2022-09-13T03:25:56;5.80;;;2.60;;
34405;SDS011;20658;45.630;8.886;2022-09-13T03:28:55;5.75;;;2.60;;
34405;SDS011;20658;45.630;8.886;2022-09-13T03:31:57;5.80;;;2.80;;
34405;SDS011;20658;45.630;8.886;2022-09-13T03:34:42;7.28;;;2.50;;
34405;SDS011;20658;45.630;8.886;2022-09-13T03:37:24;7.15;;;2.47;;
34405;SDS011;20658;45.630;8.886;2022-09-13T03:40:07;3.75;;;2.75;;
34405;SDS011;20658;45.630;8.886;2022-09-13T03:42:44;5.80;;;2.70;;
34405;SDS011;20658;45.630;8.886;2022-09-13T03:45:25;8.10;;;2.40;;
34405;SDS011;20658;45.630;8.886;2022-09-13T03:48:03;6.93;;;2.58;;
34405;SDS011;20658;45.630;8.886;2022-09-13T03:50:38;11.68;;;3.33;;
34405;SDS011;20658;45.630;8.886;2022-09-13T03:53:12;7.82;;;2.80;;
34405;SDS011;20658;45.630;8.886;2022-09-13T03:55:52;5.88;;;3.08;;
34405;SDS011;20658;45.630;8.886;2022-09-13T03:58:25;4.70;;;2.55;;
34405;SDS011;20658;45.630;8.886;2022-09-13T04:00:59;4.47;;;2.75;;
34405;SDS011;20658;45.630;8.886;2022-09-13T04:03:32;8.02;;;3.60;;
34405;SDS011;20658;45.630;8.886;2022-09-13T04:06:06;6.25;;;2.97;;
34405;SDS011;20658;45.630;8.886;2022-09-13T04:08:40;10.23;;;3.13;;
34405;SDS011;20658;45.630;8.886;2022-09-13T04:11:16;6.15;;;3.42;;
34405;SDS011;20658;45.630;8.886;2022-09-13T04:13:51;8.10;;;3.70;;
34405;SDS011;20658;45.630;8.886;2022-09-13T04:16:24;11.07;;;3.53;;
34405;SDS011;20658;45.630;8.886;2022-09-13T04:18:58;7.45;;;3.55;;
34405;SDS011;20658;45.630;8.886;2022-09-13T04:21:31;11.30;;;3.70;;
34405;SDS011;20658;45.630;8.886;2022-09-13T04:24:05;6.93;;;3.28;;
34405;SDS011;20658;45.630;8.886;2022-09-13T04:26:39;11.05;;;4.20;;
34405;SDS011;20658;45.630;8.886;2022-09-13T04:29:13;10.27;;;4.18;;
34405;SDS011;20658;45.630;8.886;2022-09-13T04:31:47;7.10;;;4.28;;
34405;SDS011;20658;45.630;8.886;2022-09-13T04:34:23;10.98;;;4.20;;
34405;SDS011;20658;45.630;8.886;2022-09-13T04:36:56;7.63;;;3.25;;
34405;SDS011;20658;45.630;8.886;2022-09-13T04:39:30;8.00;;;3.75;;
34405;SDS011;20658;45.630;8.886;2022-09-13T04:42:05;9.30;;;3.30;;
34405;SDS011;20658;45.630;8.886;2022-09-13T04:44:34;9.70;;;4.05;;
34405;SDS011;20658;45.630;8.886;2022-09-13T04:47:07;5.00;;;2.97;;
34405;SDS011;20658;45.630;8.886;2022-09-13T04:49:41;4.80;;;2.92;;
34405;SDS011;20658;45.630;8.886;2022-09-13T04:52:14;8.98;;;3.10;;
34405;SDS011;20658;45.630;8.886;2022-09-13T04:54:47;7.65;;;2.72;;
34405;SDS011;20658;45.630;8.886;2022-09-13T04:57:23;7.43;;;2.70;;
34405;SDS011;20658;45.630;8.886;2022-09-13T04:59:56;5.95;;;2.95;;
34405;SDS011;20658;45.630;8.886;2022-09-13T05:02:30;6.60;;;2.80;;
34405;SDS011;20658;45.630;8.886;2022-09-13T05:05:03;9.00;;;2.95;;
34405;SDS011;20658;45.630;8.886;2022-09-13T05:07:37;8.85;;;3.17;;
34405;SDS011;20658;45.630;8.886;2022-09-13T05:10:11;7.28;;;2.70;;
34405;SDS011;20658;45.630;8.886;2022-09-13T05:12:45;6.25;;;2.92;;
34405;SDS011;20658;45.630;8.886;2022-09-13T05:15:19;7.63;;;3.10;;
34405;SDS011;20658;45.630;8.886;2022-09-13T05:17:52;5.80;;;2.55;;
34405;SDS011;20658;45.630;8.886;2022-09-13T05:20:25;4.97;;;2.53;;
34405;SDS011;20658;45.630;8.886;2022-09-13T05:22:58;5.13;;;2.58;;
34405;SDS011;20658;45.630;8.886;2022-09-13T05:25:32;9.30;;;3.50;;
34405;SDS011;20658;45.630;8.886;2022-09-13T05:28:06;11.13;;;3.40;;
34405;SDS011;20658;45.630;8.886;2022-09-13T05:30:39;7.60;;;4.45;;
34405;SDS011;20658;45.630;8.886;2022-09-13T05:33:13;16.90;;;4.38;;
34405;SDS011;20658;45.630;8.886;2022-09-13T05:35:46;11.43;;;4.32;;
34405;SDS011;20658;45.630;8.886;2022-09-13T05:38:19;6.47;;;3.17;;
34405;SDS011;20658;45.630;8.886;2022-09-13T05:40:53;28.23;;;4.20;;
34405;SDS011;20658;45.630;8.886;2022-09-13T05:43:29;12.60;;;3.78;;
34405;SDS011;20658;45.630;8.886;2022-09-13T05:46:06;8.02;;;3.63;;
34405;SDS011;20658;45.630;8.886;2022-09-13T05:48:42;11.05;;;4.40;;
34405;SDS011;20658;45.630;8.886;2022-09-13T05:51:16;6.55;;;4.10;;
34405;SDS011;20658;45.630;8.886;2022-09-13T05:53:51;12.98;;;3.88;;
34405;SDS011;20658;45.630;8.886;2022-09-13T05:56:26;10.55;;;3.70;;
34405;SDS011;20658;45.630;8.886;2022-09-13T05:59:03;6.97;;;3.10;;
34405;SDS011;20658;45.630;8.886;2022-09-13T06:01:36;4.93;;;2.85;;
34405;SDS011;20658;45.630;8.886;2022-09-13T06:04:10;8.80;;;3.10;;
34405;SDS011;20658;45.630;8.886;2022-09-13T06:06:43;9.48;;;3.67;;
34405;SDS011;20658;45.630;8.886;2022-09-13T06:09:16;10.35;;;3.22;;
34405;SDS011;20658;45.630;8.886;2022-09-13T06:11:49;10.20;;;3.67;;
34405;SDS011;20658;45.630;8.886;2022-09-13T06:14:24;8.50;;;3.67;;
34405;SDS011;20658;45.630;8.886;2022-09-13T06:16:57;9.55;;;3.70;;
34405;SDS011;20658;45.630;8.886;2022-09-13T06:19:30;11.50;;;3.75;;
34405;SDS011;20658;45.630;8.886;2022-09-13T06:22:04;12.15;;;3.15;;
34405;SDS011;20658;45.630;8.886;2022-09-13T06:24:38;10.52;;;3.13;;
34405;SDS011;20658;45.630;8.886;2022-09-13T06:27:11;10.30;;;3.78;;
34405;SDS011;20658;45.630;8.886;2022-09-13T06:29:45;6.57;;;3.75;;
34405;SDS011;20658;45.630;8.886;2022-09-13T06:32:18;10.88;;;4.10;;
34405;SDS011;20658;45.630;8.886;2022-09-13T06:34:52;10.63;;;3.80;;
34405;SDS011;20658;45.630;8.886;2022-09-13T06:37:25;8.88;;;3.20;;
34405;SDS011;20658;45.630;8.886;2022-09-13T06:39:58;6.68;;;3.00;;
34405;SDS011;20658;45.630;8.886;2022-09-13T06:42:32;7.80;;;2.63;;
34405;SDS011;20658;45.630;8.886;2022-09-13T06:45:08;10.02;;;3.35;;
34405;SDS011;20658;45.630;8.886;2022-09-13T06:47:42;10.27;;;3.45;;
34405;SDS011;20658;45.630;8.886;2022-09-13T06:50:15;6.80;;;3.00;;
34405;SDS011;20658;45.630;8.886;2022-09-13T06:52:48;12.10;;;3.10;;
34405;SDS011;20658;45.630;8.886;2022-09-13T06:55:22;11.68;;;3.63;;
34405;SDS011;20658;45.630;8.886;2022-09-13T06:57:55;12.68;;;3.70;;
34405;SDS011;20658;45.630;8.886;2022-09-13T07:00:30;12.77;;;4.18;;
34405;SDS011;20658;45.630;8.886;2022-09-13T07:03:04;9.25;;;3.33;;
34405;SDS011;20658;45.630;8.886;2022-09-13T07:05:37;16.92;;;4.60;;
34405;SDS011;20658;45.630;8.886;2022-09-13T07:08:10;12.13;;;3.45;;
34405;SDS011;20658;45.630;8.886;2022-09-13T07:10:43;7.85;;;3.00;;
34405;SDS011;20658;45.630;8.886;2022-09-13T07:13:17;10.68;;;3.92;;
34405;SDS011;20658;45.630;8.886;2022-09-13T07:15:52;16.20;;;3.60;;
34405;SDS011;20658;45.630;8.886;2022-09-13T07:18:25;9.70;;;3.90;;
34405;SDS011;20658;45.630;8.886;2022-09-13T07:20:59;10.60;;;3.67;;
34405;SDS011;20658;45.630;8.886;2022-09-13T07:23:35;9.25;;;4.03;;
34405;SDS011;20658;45.630;8.886;2022-09-13T07:26:10;7.88;;;3.47;;
34405;SDS011;20658;45.630;8.886;2022-09-13T07:28:44;10.50;;;3.83;;
34405;SDS011;20658;45.630;8.886;2022-09-13T07:31:20;8.82;;;3.75;;
34405;SDS011;20658;45.630;8.886;2022-09-13T07:33:56;12.18;;;4.68;;
34405;SDS011;20658;45.630;8.886;2022-09-13T07:36:32;6.22;;;3.80;;
34405;SDS011;20658;45.630;8.886;2022-09-13T07:39:07;10.18;;;4.53;;
34405;SDS011;20658;45.630;8.886;2022-09-13T07:41:41;12.18;;;3.92;;
34405;SDS011;20658;45.630;8.886;2022-09-13T07:44:14;8.82;;;3.88;;
34405;SDS011;20658;45.630;8.886;2022-09-13T07:46:49;9.95;;;4.70;;
34405;SDS011;20658;45.630;8.886;2022-09-13T07:49:22;12.75;;;5.15;;
34405;SDS011;20658;45.630;8.886;2022-09-13T07:51:56;17.08;;;5.82;;
34405;SDS011;20658;45.630;8.886;2022-09-13T07:54:29;9.05;;;5.28;;
34405;SDS011;20658;45.630;8.886;2022-09-13T07:57:03;14.32;;;4.55;;
34405;SDS011;20658;45.630;8.886;2022-09-13T07:59:36;13.07;;;5.22;;
34405;SDS011;20658;45.630;8.886;2022-09-13T08:02:11;11.32;;;4.75;;
34405;SDS011;20658;45.630;8.886;2022-09-13T08:04:45;11.10;;;5.30;;
34405;SDS011;20658;45.630;8.886;2022-09-13T08:07:18;12.02;;;4.68;;
34405;SDS011;20658;45.630;8.886;2022-09-13T08:09:51;13.00;;;5.50;;
34405;SDS011;20658;45.630;8.886;2022-09-13T08:12:26;10.18;;;4.95;;
34405;SDS011;20658;45.630;8.886;2022-09-13T08:14:59;13.75;;;6.13;;
34405;SDS011;20658;45.630;8.886;2022-09-13T08:17:34;15.38;;;5.80;;
34405;SDS011;20658;45.630;8.886;2022-09-13T08:20:08;12.73;;;5.32;;
34405;SDS011;20658;45.630;8.886;2022-09-13T08:22:41;16.17;;;6.55;;
34405;SDS011;20658;45.630;8.886;2022-09-13T08:25:14;15.82;;;5.75;;
34405;SDS011;20658;45.630;8.886;2022-09-13T08:27:48;19.13;;;5.82;;
34405;SDS011;20658;45.630;8.886;2022-09-13T08:30:21;14.30;;;6.22;;
34405;SDS011;20658;45.630;8.886;2022-09-13T08:32:55;13.80;;;5.90;;
34405;SDS011;20658;45.630;8.886;2022-09-13T08:35:29;15.68;;;6.07;;
34405;SDS011;20658;45.630;8.886;2022-09-13T08:38:02;15.63;;;5.47;;
34405;SDS011;20658;45.630;8.886;2022-09-13T08:40:37;17.38;;;6.75;;
34405;SDS011;20658;45.630;8.886;2022-09-13T08:43:14;15.48;;;6.13;;
34405;SDS011;20658;45.630;8.886;2022-09-13T08:45:57;12.60;;;5.85;;
34405;SDS011;20658;45.630;8.886;2022-09-13T08:48:36;13.45;;;5.72;;
34405;SDS011;20658;45.630;8.886;2022-09-13T08:51:19;12.43;;;6.18;;
34405;SDS011;20658;45.630;8.886;2022-09-13T08:54:02;10.60;;;5.10;;
34405;SDS011;20658;45.630;8.886;2022-09-13T08:56:37;11.75;;;5.45;;
34405;SDS011;20658;45.630;8.886;2022-09-13T08:59:26;12.38;;;5.03;;
34405;SDS011;20658;45.630;8.886;2022-09-13T09:02:13;9.73;;;4.88;;
34405;SDS011;20658;45.630;8.886;2022-09-13T09:05:12;14.43;;;5.38;;
34405;SDS011;20658;45.630;8.886;2022-09-13T09:07:50;13.30;;;5.32;;
34405;SDS011;20658;45.630;8.886;2022-09-13T09:10:29;12.70;;;5.45;;
34405;SDS011;20658;45.630;8.886;2022-09-13T09:13:05;16.08;;;5.05;;
34405;SDS011;20658;45.630;8.886;2022-09-13T09:15:46;12.80;;;5.85;;
34405;SDS011;20658;45.630;8.886;2022-09-13T09:18:24;12.70;;;6.07;;
34405;SDS011;20658;45.630;8.886;2022-09-13T09:21:05;13.90;;;5.43;;
34405;SDS011;20658;45.630;8.886;2022-09-13T09:23:48;12.98;;;5.38;;
34405;SDS011;20658;45.630;8.886;2022-09-13T09:26:23;10.48;;;5.28;;
34405;SDS011;20658;45.630;8.886;2022-09-13T09:29:00;9.50;;;5.10;;
34405;SDS011;20658;45.630;8.886;2022-09-13T09:31:43;17.10;;;5.50;;
34405;SDS011;20658;45.630;8.886;2022-09-13T09:34:32;9.75;;;5.35;;
34405;SDS011;20658;45.630;8.886;2022-09-13T09:37:23;11.05;;;6.00;;
34405;SDS011;20658;45.630;8.886;2022-09-13T09:40:00;14.20;;;5.88;;
34405;SDS011;20658;45.630;8.886;2022-09-13T09:42:39;10.65;;;5.50;;
34405;SDS011;20658;45.630;8.886;2022-09-13T09:45:22;12.07;;;5.22;;
34405;SDS011;20658;45.630;8.886;2022-09-13T09:47:59;11.23;;;5.43;;
34405;SDS011;20658;45.630;8.886;2022-09-13T09:50:43;11.15;;;5.28;;
34405;SDS011;20658;45.630;8.886;2022-09-13T09:53:23;12.05;;;4.97;;
34405;SDS011;20658;45.630;8.886;2022-09-13T09:56:01;10.93;;;5.18;;
34405;SDS011;20658;45.630;8.886;2022-09-13T09:58:47;15.30;;;6.40;;
34405;SDS011;20658;45.630;8.886;2022-09-13T10:01:22;11.63;;;5.60;;
34405;SDS011;20658;45.630;8.886;2022-09-13T10:04:00;13.77;;;5.93;;
34405;SDS011;20658;45.630;8.886;2022-09-13T10:06:39;12.93;;;6.18;;
34405;SDS011;20658;45.630;8.886;2022-09-13T10:09:15;11.07;;;5.93;;
34405;SDS011;20658;45.630;8.886;2022-09-13T10:11:52;10.75;;;5.20;;
34405;SDS011;20658;45.630;8.886;2022-09-13T10:14:29;12.93;;;4.45;;
34405;SDS011;20658;45.630;8.886;2022-09-13T10:17:15;16.27;;;5.97;;
34405;SDS011;20658;45.630;8.886;2022-09-13T10:19:54;16.52;;;5.35;;
34405;SDS011;20658;45.630;8.886;2022-09-13T10:22:31;14.93;;;5.43;;
34405;SDS011;20658;45.630;8.886;2022-09-13T10:25:13;14.07;;;6.25;;
34405;SDS011;20658;45.630;8.886;2022-09-13T10:27:50;15.25;;;4.82;;
34405;SDS011;20658;45.630;8.886;2022-09-13T10:30:30;9.65;;;4.28;;
34405;SDS011;20658;45.630;8.886;2022-09-13T10:33:09;10.00;;;3.63;;
34405;SDS011;20658;45.630;8.886;2022-09-13T10:35:58;12.93;;;2.80;;
34405;SDS011;20658;45.630;8.886;2022-09-13T10:38:36;9.38;;;2.80;;
34405;SDS011;20658;45.630;8.886;2022-09-13T10:41:20;10.27;;;2.85;;
34405;SDS011;20658;45.630;8.886;2022-09-13T10:43:56;5.20;;;2.50;;
34405;SDS011;20658;45.630;8.886;2022-09-13T10:46:31;8.93;;;2.70;;
34405;SDS011;20658;45.630;8.886;2022-09-13T10:49:16;12.10;;;3.00;;
34405;SDS011;20658;45.630;8.886;2022-09-13T10:52:27;7.35;;;2.90;;
34405;SDS011;20658;45.630;8.886;2022-09-13T10:55:19;6.88;;;2.50;;
34405;SDS011;20658;45.630;8.886;2022-09-13T10:58:15;9.35;;;2.55;;
34405;SDS011;20658;45.630;8.886;2022-09-13T11:01:09;7.15;;;3.17;;
34405;SDS011;20658;45.630;8.886;2022-09-13T11:04:18;9.23;;;2.90;;
34405;SDS011;20658;45.630;8.886;2022-09-13T11:07:26;7.68;;;2.65;;
34405;SDS011;20658;45.630;8.886;2022-09-13T11:10:18;10.07;;;2.40;;
34405;SDS011;20658;45.630;8.886;2022-09-13T11:12:58;12.02;;;2.80;;
34405;SDS011;20658;45.630;8.886;2022-09-13T11:15:42;8.20;;;2.83;;
34405;SDS011;20658;45.630;8.886;2022-09-13T11:18:30;7.82;;;2.80;;
34405;SDS011;20658;45.630;8.886;2022-09-13T11:21:35;11.15;;;4.00;;
34405;SDS011;20658;45.630;8.886;2022-09-13T11:24:23;7.75;;;2.78;;
34405;SDS011;20658;45.630;8.886;2022-09-13T11:27:32;6.85;;;2.75;;
34405;SDS011;20658;45.630;8.886;2022-09-13T11:30:17;13.10;;;3.53;;
34405;SDS011;20658;45.630;8.886;2022-09-13T11:32:58;12.50;;;3.65;;
34405;SDS011;20658;45.630;8.886;2022-09-13T11:35:56;12.77;;;3.35;;
34405;SDS011;20658;45.630;8.886;2022-09-13T11:38:49;7.80;;;2.65;;
34405;SDS011;20658;45.630;8.886;2022-09-13T11:41:38;8.77;;;4.18;;
34405;SDS011;20658;45.630;8.886;2022-09-13T11:44:31;6.28;;;3.20;;
34405;SDS011;20658;45.630;8.886;2022-09-13T11:47:28;7.28;;;3.15;;
34405;SDS011;20658;45.630;8.886;2022-09-13T11:50:19;11.85;;;4.68;;
34405;SDS011;20658;45.630;8.886;2022-09-13T11:53:09;9.63;;;3.88;;
34405;SDS011;20658;45.630;8.886;2022-09-13T11:56:03;12.32;;;4.20;;
34405;SDS011;20658;45.630;8.886;2022-09-13T11:58:43;12.00;;;3.63;;
34405;SDS011;20658;45.630;8.886;2022-09-13T12:01:20;22.58;;;7.30;;
34405;SDS011;20658;45.630;8.886;2022-09-13T12:04:00;17.88;;;6.63;;
34405;SDS011;20658;45.630;8.886;2022-09-13T12:06:40;10.23;;;4.05;;
34405;SDS011;20658;45.630;8.886;2022-09-13T12:09:18;13.38;;;4.88;;
34405;SDS011;20658;45.630;8.886;2022-09-13T12:11:57;11.88;;;4.53;;
34405;SDS011;20658;45.630;8.886;2022-09-13T12:14:40;9.03;;;4.43;;
34405;SDS011;20658;45.630;8.886;2022-09-13T12:17:21;12.63;;;4.65;;
34405;SDS011;20658;45.630;8.886;2022-09-13T12:19:59;11.18;;;4.53;;
34405;SDS011;20658;45.630;8.886;2022-09-13T12:22:36;10.30;;;3.40;;
34405;SDS011;20658;45.630;8.886;2022-09-13T12:25:14;12.88;;;3.70;;
34405;SDS011;20658;45.630;8.886;2022-09-13T12:27:54;12.35;;;3.45;;
34405;SDS011;20658;45.630;8.886;2022-09-13T12:30:36;10.48;;;3.33;;
34405;SDS011;20658;45.630;8.886;2022-09-13T12:33:14;6.20;;;3.03;;
34405;SDS011;20658;45.630;8.886;2022-09-13T12:36:01;9.00;;;2.97;;
34405;SDS011;20658;45.630;8.886;2022-09-13T12:45:58;13.50;;;2.33;;
34405;SDS011;20658;45.630;8.886;2022-09-13T12:55:14;8.82;;;2.00;;
34405;SDS011;20658;45.630;8.886;2022-09-13T12:58:17;6.00;;;2.28;;
34405;SDS011;20658;45.630;8.886;2022-09-13T13:01:10;12.25;;;2.25;;
34405;SDS011;20658;45.630;8.886;2022-09-13T13:03:50;8.98;;;2.47;;
34405;SDS011;20658;45.630;8.886;2022-09-13T13:06:27;10.30;;;1.95;;
34405;SDS011;20658;45.630;8.886;2022-09-13T13:09:06;4.88;;;2.33;;
34405;SDS011;20658;45.630;8.886;2022-09-13T13:12:01;13.18;;;2.65;;
34405;SDS011;20658;45.630;8.886;2022-09-13T13:14:47;8.25;;;2.45;;
34405;SDS011;20658;45.630;8.886;2022-09-13T13:17:33;5.18;;;1.98;;
34405;SDS011;20658;45.630;8.886;2022-09-13T13:23:23;9.45;;;2.38;;
34405;SDS011;20658;45.630;8.886;2022-09-13T13:26:01;9.90;;;2.30;;
34405;SDS011;20658;45.630;8.886;2022-09-13T13:28:51;9.88;;;2.03;;
34405;SDS011;20658;45.630;8.886;2022-09-13T13:34:45;8.40;;;3.10;;
34405;SDS011;20658;45.630;8.886;2022-09-13T13:37:33;10.40;;;3.47;;
34405;SDS011;20658;45.630;8.886;2022-09-13T13:52:34;10.10;;;2.90;;
34405;SDS011;20658;45.630;8.886;2022-09-13T13:55:29;6.45;;;2.72;;
34405;SDS011;20658;45.630;8.886;2022-09-13T13:58:32;6.05;;;2.67;;
34405;SDS011;20658;45.630;8.886;2022-09-13T14:01:19;8.30;;;2.80;;
34405;SDS011;20658;45.630;8.886;2022-09-13T14:04:04;12.23;;;3.60;;
34405;SDS011;20658;45.630;8.886;2022-09-13T14:07:12;11.70;;;2.63;;
34405;SDS011;20658;45.630;8.886;2022-09-13T14:10:02;8.07;;;2.63;;
34405;SDS011;20658;45.630;8.886;2022-09-13T14:12:46;9.65;;;2.45;;
34405;SDS011;20658;45.630;8.886;2022-09-13T14:15:45;8.43;;;2.65;;
34405;SDS011;20658;45.630;8.886;2022-09-13T14:18:49;9.98;;;2.58;;
34405;SDS011;20658;45.630;8.886;2022-09-13T14:22:06;5.78;;;2.45;;
34405;SDS011;20658;45.630;8.886;2022-09-13T14:24:46;8.02;;;2.13;;
34405;SDS011;20658;45.630;8.886;2022-09-13T14:27:22;5.95;;;2.45;;
34405;SDS011;20658;45.630;8.886;2022-09-13T14:29:59;12.15;;;3.20;;
34405;SDS011;20658;45.630;8.886;2022-09-13T14:32:38;10.07;;;2.58;;
34405;SDS011;20658;45.630;8.886;2022-09-13T14:35:24;7.65;;;2.53;;
34405;SDS011;20658;45.630;8.886;2022-09-13T14:38:09;10.55;;;2.60;;
34405;SDS011;20658;45.630;8.886;2022-09-13T14:40:47;8.68;;;2.67;;
34405;SDS011;20658;45.630;8.886;2022-09-13T14:43:23;12.82;;;2.67;;
34405;SDS011;20658;45.630;8.886;2022-09-13T14:46:01;10.77;;;3.20;;
34405;SDS011;20658;45.630;8.886;2022-09-13T14:48:40;10.35;;;2.22;;
34405;SDS011;20658;45.630;8.886;2022-09-13T14:51:23;9.00;;;2.53;;
34405;SDS011;20658;45.630;8.886;2022-09-13T14:54:00;15.98;;;3.60;;
34405;SDS011;20658;45.630;8.886;2022-09-13T14:56:43;14.15;;;2.85;;
34405;SDS011;20658;45.630;8.886;2022-09-13T14:59:22;14.07;;;2.97;;
34405;SDS011;20658;45.630;8.886;2022-09-13T15:02:04;14.15;;;2.97;;
34405;SDS011;20658;45.630;8.886;2022-09-13T15:04:38;18.48;;;2.65;;
34405;SDS011;20658;45.630;8.886;2022-09-13T15:07:19;13.63;;;2.30;;
34405;SDS011;20658;45.630;8.886;2022-09-13T15:09:56;7.70;;;2.15;;
34405;SDS011;20658;45.630;8.886;2022-09-13T15:12:47;5.03;;;2.30;;
34405;SDS011;20658;45.630;8.886;2022-09-13T15:15:31;8.68;;;2.20;;
34405;SDS011;20658;45.630;8.886;2022-09-13T15:18:21;7.20;;;2.05;;
34405;SDS011;20658;45.630;8.886;2022-09-13T15:20:57;8.23;;;2.40;;
34405;SDS011;20658;45.630;8.886;2022-09-13T15:23:34;8.98;;;2.22;;
34405;SDS011;20658;45.630;8.886;2022-09-13T15:26:11;14.63;;;2.30;;
34405;SDS011;20658;45.630;8.886;2022-09-13T15:28:52;5.68;;;1.88;;
34405;SDS011;20658;45.630;8.886;2022-09-13T15:31:27;10.82;;;2.55;;
34405;SDS011;20658;45.630;8.886;2022-09-13T15:34:12;9.10;;;2.20;;
34405;SDS011;20658;45.630;8.886;2022-09-13T15:37:06;7.60;;;1.80;;
34405;SDS011;20658;45.630;8.886;2022-09-13T15:39:44;7.88;;;1.52;;
34405;SDS011;20658;45.630;8.886;2022-09-13T15:42:19;7.85;;;1.73;;
34405;SDS011;20658;45.630;8.886;2022-09-13T15:44:53;6.00;;;1.80;;
34405;SDS011;20658;45.630;8.886;2022-09-13T15:47:27;8.18;;;1.80;;
34405;SDS011;20658;45.630;8.886;2022-09-13T15:50:00;7.30;;;1.88;;
34405;SDS011;20658;45.630;8.886;2022-09-13T15:52:33;7.60;;;2.20;;
34405;SDS011;20658;45.630;8.886;2022-09-13T15:55:09;6.85;;;1.65;;
34405;SDS011;20658;45.630;8.886;2022-09-13T15:57:44;6.35;;;1.55;;
34405;SDS011;20658;45.630;8.886;2022-09-13T16:00:19;6.95;;;1.70;;
34405;SDS011;20658;45.630;8.886;2022-09-13T16:02:55;9.77;;;2.03;;
34405;SDS011;20658;45.630;8.886;2022-09-13T16:05:28;7.53;;;2.05;;
34405;SDS011;20658;45.630;8.886;2022-09-13T16:08:01;6.05;;;1.70;;
34405;SDS011;20658;45.630;8.886;2022-09-13T16:10:36;6.97;;;1.60;;
34405;SDS011;20658;45.630;8.886;2022-09-13T16:13:09;8.73;;;1.98;;
34405;SDS011;20658;45.630;8.886;2022-09-13T16:15:43;9.70;;;2.33;;
34405;SDS011;20658;45.630;8.886;2022-09-13T16:18:16;7.20;;;1.80;;
34405;SDS011;20658;45.630;8.886;2022-09-13T16:20:49;8.93;;;1.73;;
34405;SDS011;20658;45.630;8.886;2022-09-13T16:23:18;8.98;;;1.92;;
34405;SDS011;20658;45.630;8.886;2022-09-13T16:25:48;6.47;;;2.20;;
34405;SDS011;20658;45.630;8.886;2022-09-13T16:28:28;6.05;;;1.75;;
34405;SDS011;20658;45.630;8.886;2022-09-13T16:31:02;6.53;;;1.70;;